Time;durP1;ratioP1;P1;durP2;ratioP2;P2;SDS_P1;SDS_P2;PMS_P1;PMS_P2;Temp;Humidity;BMP_temperature;BMP_pressure;BME280_temperature;BME280_humidity;BME280_pressure;Samples;Min_cycle;Max_cycle;Signal;HPM_P1;HPM_P2
2024/01/28 00:02:05;;;;;;;18.47;12.20;;;;;;;;;;4976395;28;20204;-88
2024/01/28 00:04:34;;;;;;;20.70;12.47;;;;;;;;;;4958293;28;20212;-87
2024/01/28 00:07:02;;;;;;;18.63;13.57;;;;;;;;;;4958640;28;20214;-87
2024/01/28 00:09:31;;;;;;;18.03;11.67;;;;;;;;;;4973818;28;20208;-85
2024/01/28 00:12:01;;;;;;;20.40;13.13;;;;;;;;;;4958074;28;20235;-85
2024/01/28 00:14:30;;;;;;;18.63;13.13;;;;;;;;;;4957750;28;20202;-85
2024/01/28 00:16:58;;;;;;;19.00;11.10;;;;;;;;;;4957032;28;20203;-84
2024/01/28 00:19:27;;;;;;;17.63;12.37;;;;;;;;;;4957678;28;20205;-85
2024/01/28 00:21:55;;;;;;;18.90;11.20;;;;;;;;;;4973745;28;20201;-88
2024/01/28 00:24:27;;;;;;;14.43;9.40;;;;;;;;;;4975811;28;20268;-87
2024/01/28 00:26:56;;;;;;;11.90;6.17;;;;;;;;;;4974014;28;20208;-87
2024/01/28 00:29:28;;;;;;;14.10;8.93;;;;;;;;;;4973879;28;20220;-87
2024/01/28 00:31:57;;;;;;;14.87;11.63;;;;;;;;;;4957981;28;20299;-88
2024/01/28 00:34:26;;;;;;;17.70;11.67;;;;;;;;;;4975228;28;20207;-88
2024/01/28 00:36:55;;;;;;;15.30;11.97;;;;;;;;;;4957207;28;20276;-87
2024/01/28 00:39:24;;;;;;;14.13;8.97;;;;;;;;;;4973266;28;20223;-87
2024/01/28 00:41:53;;;;;;;13.10;10.77;;;;;;;;;;4958244;28;20185;-88
2024/01/28 00:44:21;;;;;;;17.90;11.33;;;;;;;;;;4975318;28;20196;-87
2024/01/28 00:46:51;;;;;;;16.50;11.23;;;;;;;;;;4957913;28;20304;-87
2024/01/28 00:49:23;;;;;;;17.50;12.63;;;;;;;;;;4974398;28;20208;-87
2024/01/28 00:51:52;;;;;;;17.43;11.60;;;;;;;;;;4974742;28;20211;-87
2024/01/28 00:54:20;;;;;;;19.97;12.73;;;;;;;;;;4957999;28;20459;-87
2024/01/28 00:56:49;;;;;;;14.47;11.73;;;;;;;;;;4956825;28;20206;-87
2024/01/28 00:59:20;;;;;;;17.27;12.10;;;;;;;;;;4956959;28;20204;-87
2024/01/28 01:01:48;;;;;;;17.00;12.13;;;;;;;;;;4956594;28;20200;-88
2024/01/28 01:04:18;;;;;;;15.53;12.20;;;;;;;;;;4974174;28;20278;-87
2024/01/28 01:06:47;;;;;;;19.07;13.50;;;;;;;;;;4974463;28;20207;-88
2024/01/28 01:09:16;;;;;;;10.57;9.17;;;;;;;;;;4974335;28;20196;-88
2024/01/28 01:11:45;;;;;;;21.47;11.50;;;;;;;;;;4957109;28;20223;-88
2024/01/28 01:14:13;;;;;;;18.67;11.57;;;;;;;;;;4974461;28;20291;-87
2024/01/28 01:16:42;;;;;;;16.50;10.90;;;;;;;;;;4972206;28;20204;-88
2024/01/28 01:19:10;;;;;;;16.13;10.33;;;;;;;;;;4973880;28;20292;-87
2024/01/28 01:21:40;;;;;;;9.03;6.17;;;;;;;;;;4956417;28;20197;-88
2024/01/28 01:24:09;;;;;;;17.27;9.97;;;;;;;;;;4973635;28;20200;-87
2024/01/28 01:26:39;;;;;;;13.93;9.53;;;;;;;;;;4973859;28;20255;-88
2024/01/28 01:29:08;;;;;;;11.87;8.63;;;;;;;;;;4974049;28;20211;-88
2024/01/28 01:31:36;;;;;;;14.60;8.90;;;;;;;;;;4972459;28;20210;-88
2024/01/28 01:34:05;;;;;;;10.43;6.93;;;;;;;;;;4973454;28;20247;-88
2024/01/28 01:36:33;;;;;;;4.27;3.33;;;;;;;;;;4956934;28;20233;-87
2024/01/28 01:39:03;;;;;;;6.50;5.10;;;;;;;;;;4973077;28;20268;-88
2024/01/28 01:41:32;;;;;;;1.80;1.70;;;;;;;;;;4972827;28;20215;-88
2024/01/28 01:44:00;;;;;;;7.20;5.53;;;;;;;;;;4973586;28;20197;-87
2024/01/28 01:46:29;;;;;;;7.27;5.23;;;;;;;;;;4974472;28;20201;-87
2024/01/28 01:48:58;;;;;;;14.00;9.43;;;;;;;;;;4974074;28;20272;-88
2024/01/28 01:51:27;;;;;;;10.00;6.87;;;;;;;;;;4956479;28;20205;-88
2024/01/28 01:53:56;;;;;;;16.73;9.73;;;;;;;;;;4955873;28;20228;-87
2024/01/28 01:56:27;;;;;;;13.47;6.83;;;;;;;;;;4973745;28;20205;-87
2024/01/28 01:58:55;;;;;;;11.83;9.10;;;;;;;;;;4956299;28;20211;-87
2024/01/28 02:01:24;;;;;;;18.87;11.17;;;;;;;;;;4955896;28;20300;-88
2024/01/28 02:03:54;;;;;;;10.67;8.60;;;;;;;;;;4955888;28;20200;-88
2024/01/28 02:06:23;;;;;;;13.77;9.60;;;;;;;;;;4956897;28;20219;-88
2024/01/28 02:08:52;;;;;;;14.90;8.80;;;;;;;;;;4972602;28;20197;-88
2024/01/28 02:11:21;;;;;;;16.60;10.57;;;;;;;;;;4973074;28;20204;-87
2024/01/28 02:13:51;;;;;;;14.10;8.57;;;;;;;;;;4972927;28;20240;-87
2024/01/28 02:16:22;;;;;;;10.63;9.13;;;;;;;;;;4956062;28;20298;-87
2024/01/28 02:18:50;;;;;;;17.70;10.00;;;;;;;;;;4957039;28;20211;-87
2024/01/28 02:21:20;;;;;;;15.43;9.43;;;;;;;;;;4956352;28;20199;-87
2024/01/28 02:23:50;;;;;;;14.00;9.67;;;;;;;;;;4955619;28;20286;-87
2024/01/28 02:26:19;;;;;;;14.80;9.67;;;;;;;;;;4955781;28;20216;-88
2024/01/28 02:28:47;;;;;;;13.27;8.23;;;;;;;;;;4974671;28;20239;-88
2024/01/28 02:31:15;;;;;;;13.03;9.23;;;;;;;;;;4977563;28;20283;-88
2024/01/28 02:33:44;;;;;;;11.50;8.30;;;;;;;;;;4975884;28;20223;-87
2024/01/28 02:36:13;;;;;;;13.67;8.93;;;;;;;;;;4976815;28;20239;-88
2024/01/28 02:38:41;;;;;;;20.73;9.57;;;;;;;;;;4960101;28;20203;-85
2024/01/28 02:41:11;;;;;;;15.43;8.77;;;;;;;;;;4958856;28;20250;-85
2024/01/28 02:43:40;;;;;;;11.90;8.70;;;;;;;;;;4975801;28;20197;-85
2024/01/28 02:46:08;;;;;;;14.67;10.27;;;;;;;;;;4958752;28;20196;-85
2024/01/28 02:48:37;;;;;;;10.63;7.77;;;;;;;;;;4976383;28;20211;-85
2024/01/28 02:51:06;;;;;;;8.90;6.60;;;;;;;;;;4959062;28;20203;-85
2024/01/28 02:53:34;;;;;;;13.70;8.27;;;;;;;;;;4958535;28;20215;-85
2024/01/28 02:56:03;;;;;;;23.20;9.40;;;;;;;;;;4958236;28;20204;-85
2024/01/28 02:58:33;;;;;;;8.83;6.77;;;;;;;;;;4958770;28;20200;-85
2024/01/28 03:01:02;;;;;;;11.87;8.20;;;;;;;;;;4976197;28;20197;-85
2024/01/28 03:03:30;;;;;;;11.90;7.93;;;;;;;;;;4976009;28;20263;-85
2024/01/28 03:05:59;;;;;;;18.87;9.33;;;;;;;;;;4975361;28;20197;-85
2024/01/28 03:08:28;;;;;;;10.97;8.63;;;;;;;;;;4957911;28;20196;-85
2024/01/28 03:10:56;;;;;;;13.57;8.37;;;;;;;;;;4975686;28;20211;-85
2024/01/28 03:13:26;;;;;;;12.30;7.30;;;;;;;;;;4958119;28;20317;-85
2024/01/28 03:15:56;;;;;;;11.67;6.93;;;;;;;;;;4957874;28;20205;-87
2024/01/28 03:18:25;;;;;;;7.77;6.07;;;;;;;;;;4958529;28;20224;-87
2024/01/28 03:20:56;;;;;;;2.00;1.90;;;;;;;;;;4974725;28;20204;-88
2024/01/28 03:23:25;;;;;;;11.13;8.13;;;;;;;;;;4976403;28;20223;-87
2024/01/28 03:25:54;;;;;;;11.93;7.70;;;;;;;;;;4975297;28;20203;-88
2024/01/28 03:28:22;;;;;;;9.53;8.23;;;;;;;;;;4975989;28;20211;-87
2024/01/28 03:30:50;;;;;;;11.80;7.80;;;;;;;;;;4958839;28;20231;-87
2024/01/28 03:33:20;;;;;;;12.77;8.80;;;;;;;;;;4958466;28;20220;-87
2024/01/28 03:35:49;;;;;;;13.60;6.93;;;;;;;;;;4958632;28;20246;-88
2024/01/28 03:38:18;;;;;;;17.40;7.17;;;;;;;;;;4958544;28;20201;-88
2024/01/28 03:40:47;;;;;;;3.80;3.47;;;;;;;;;;4974930;28;20311;-88
2024/01/28 03:43:15;;;;;;;5.17;4.07;;;;;;;;;;4975240;28;20206;-87
2024/01/28 03:45:44;;;;;;;6.10;4.10;;;;;;;;;;4976193;28;20291;-88
2024/01/28 03:48:12;;;;;;;15.23;8.57;;;;;;;;;;4975305;28;20205;-87
2024/01/28 03:50:42;;;;;;;13.93;7.53;;;;;;;;;;4958548;28;20217;-88
2024/01/28 03:53:11;;;;;;;12.27;7.87;;;;;;;;;;4975706;28;20294;-87
2024/01/28 03:55:40;;;;;;;16.13;8.97;;;;;;;;;;4974266;28;20296;-88
2024/01/28 03:58:08;;;;;;;15.73;8.33;;;;;;;;;;4957755;28;20191;-87
2024/01/28 04:00:37;;;;;;;10.80;7.47;;;;;;;;;;4975088;28;20260;-88
2024/01/28 04:03:06;;;;;;;11.83;7.77;;;;;;;;;;4974593;28;20205;-87
2024/01/28 04:05:35;;;;;;;15.10;8.33;;;;;;;;;;4958434;28;20193;-87
2024/01/28 04:08:05;;;;;;;11.93;7.97;;;;;;;;;;4975621;28;20209;-87
2024/01/28 04:10:33;;;;;;;15.93;9.63;;;;;;;;;;4974862;28;20194;-87
2024/01/28 04:13:02;;;;;;;11.53;7.90;;;;;;;;;;4973877;28;20205;-87
2024/01/28 04:15:30;;;;;;;9.13;8.27;;;;;;;;;;4958229;28;20199;-87
2024/01/28 04:17:59;;;;;;;13.07;9.57;;;;;;;;;;4975185;28;20199;-87
2024/01/28 04:20:28;;;;;;;12.27;8.93;;;;;;;;;;4957241;28;20204;-87
2024/01/28 04:22:56;;;;;;;10.50;9.07;;;;;;;;;;4974399;28;20283;-88
2024/01/28 04:25:26;;;;;;;12.03;10.33;;;;;;;;;;4957846;28;20202;-91
2024/01/28 04:27:55;;;;;;;12.57;8.77;;;;;;;;;;4974643;28;20207;-87
2024/01/28 04:30:23;;;;;;;9.07;7.00;;;;;;;;;;4974755;28;20199;-87
2024/01/28 04:32:51;;;;;;;18.30;9.53;;;;;;;;;;4974255;28;20226;-87
2024/01/28 04:35:20;;;;;;;8.13;5.60;;;;;;;;;;4954419;29;20301;-87
2024/01/28 04:37:49;;;;;;;14.40;9.43;;;;;;;;;;4954911;29;20209;-87
2024/01/28 04:40:17;;;;;;;8.10;7.27;;;;;;;;;;4955620;29;20199;-87
2024/01/28 04:42:50;;;;;;;13.57;9.80;;;;;;;;;;4954074;29;20209;-85
2024/01/28 04:45:19;;;;;;;13.83;9.43;;;;;;;;;;4969697;28;20293;-85
2024/01/28 04:47:47;;;;;;;14.13;8.30;;;;;;;;;;4969585;28;20218;-87
2024/01/28 04:50:16;;;;;;;17.77;9.77;;;;;;;;;;4954966;29;20202;-87
2024/01/28 04:52:45;;;;;;;10.57;7.40;;;;;;;;;;4953288;28;20313;-87
2024/01/28 04:55:13;;;;;;;12.43;7.80;;;;;;;;;;4969542;28;20223;-87
2024/01/28 04:57:42;;;;;;;11.87;9.13;;;;;;;;;;4955542;29;20208;-87
2024/01/28 05:00:14;;;;;;;8.50;7.27;;;;;;;;;;4969746;28;20211;-87
2024/01/28 05:02:42;;;;;;;14.50;8.83;;;;;;;;;;4953756;29;20206;-87
2024/01/28 05:05:16;;;;;;;17.63;10.60;;;;;;;;;;4954833;29;20247;-87
2024/01/28 05:07:44;;;;;;;12.20;8.70;;;;;;;;;;4954444;29;20217;-87
2024/01/28 05:10:13;;;;;;;13.90;8.97;;;;;;;;;;4955586;29;20227;-87
2024/01/28 05:12:41;;;;;;;12.00;9.10;;;;;;;;;;4953426;29;20297;-89
2024/01/28 05:15:14;;;;;;;13.33;9.97;;;;;;;;;;4968730;28;20227;-87
2024/01/28 05:17:44;;;;;;;14.17;9.87;;;;;;;;;;4953724;29;20199;-87
2024/01/28 05:20:15;;;;;;;11.23;9.37;;;;;;;;;;4953875;29;20219;-87
2024/01/28 05:22:43;;;;;;;11.90;10.17;;;;;;;;;;4954814;29;20204;-87
2024/01/28 05:25:13;;;;;;;11.57;8.43;;;;;;;;;;4954238;29;20259;-87
2024/01/28 05:27:42;;;;;;;13.63;10.37;;;;;;;;;;4954766;29;20223;-88
2024/01/28 05:30:11;;;;;;;13.40;8.33;;;;;;;;;;4954972;29;20213;-87
2024/01/28 05:32:40;;;;;;;8.80;7.40;;;;;;;;;;4954331;29;20219;-87
2024/01/28 05:35:10;;;;;;;14.30;9.47;;;;;;;;;;4957096;28;20302;-87
2024/01/28 05:37:40;;;;;;;12.40;9.17;;;;;;;;;;4956892;28;20229;-87
2024/01/28 05:40:09;;;;;;;12.37;9.67;;;;;;;;;;4974325;28;20258;-87
2024/01/28 05:42:38;;;;;;;13.93;9.17;;;;;;;;;;4956333;28;20652;-87
2024/01/28 05:45:07;;;;;;;11.33;9.27;;;;;;;;;;4972111;28;20208;-87
2024/01/28 05:47:36;;;;;;;13.60;9.40;;;;;;;;;;4973632;28;20242;-87
2024/01/28 05:50:05;;;;;;;15.50;9.03;;;;;;;;;;4957046;28;20199;-88
2024/01/28 05:52:35;;;;;;;12.57;9.07;;;;;;;;;;4973796;28;20266;-87
2024/01/28 05:55:03;;;;;;;10.47;8.23;;;;;;;;;;4971422;28;20233;-87
2024/01/28 05:57:32;;;;;;;10.63;8.23;;;;;;;;;;4972220;28;20235;-87
2024/01/28 06:00:00;;;;;;;10.57;8.80;;;;;;;;;;4973072;28;20194;-88
2024/01/28 06:02:29;;;;;;;13.50;8.50;;;;;;;;;;4972305;28;20205;-88
2024/01/28 06:04:58;;;;;;;14.80;8.67;;;;;;;;;;4975809;28;20198;-88
2024/01/28 06:07:31;;;;;;;11.50;7.90;;;;;;;;;;4977280;28;20249;-87
2024/01/28 06:10:00;;;;;;;7.80;6.07;;;;;;;;;;4977479;28;20280;-87
2024/01/28 06:12:29;;;;;;;9.33;7.57;;;;;;;;;;4976666;28;20201;-87
2024/01/28 06:15:02;;;;;;;9.97;7.77;;;;;;;;;;4976507;28;20233;-86
2024/01/28 06:17:30;;;;;;;7.20;6.37;;;;;;;;;;4977000;28;20206;-87
2024/01/28 06:19:59;;;;;;;9.30;6.17;;;;;;;;;;4960573;28;20205;-87
2024/01/28 06:22:30;;;;;;;9.63;5.87;;;;;;;;;;4977165;28;20194;-87
2024/01/28 06:25:00;;;;;;;11.70;6.23;;;;;;;;;;4976672;28;20190;-87
2024/01/28 06:27:29;;;;;;;10.43;5.83;;;;;;;;;;4976474;28;20193;-87
2024/01/28 06:29:58;;;;;;;8.70;6.33;;;;;;;;;;4976993;28;20238;-87
2024/01/28 06:32:27;;;;;;;9.57;7.33;;;;;;;;;;4975765;28;20242;-87
2024/01/28 06:34:55;;;;;;;10.40;6.63;;;;;;;;;;4976604;28;20217;-87
2024/01/28 06:37:24;;;;;;;11.67;6.87;;;;;;;;;;4974884;28;20589;-87
2024/01/28 06:39:53;;;;;;;12.00;7.47;;;;;;;;;;4975451;28;20301;-87
2024/01/28 06:42:21;;;;;;;9.10;7.00;;;;;;;;;;4959980;28;20230;-87
2024/01/28 06:44:51;;;;;;;7.97;7.10;;;;;;;;;;4975808;28;20210;-87
2024/01/28 06:47:20;;;;;;;8.77;6.90;;;;;;;;;;4975417;28;20201;-87
2024/01/28 06:49:50;;;;;;;11.50;6.80;;;;;;;;;;4976450;28;20211;-87
2024/01/28 06:52:18;;;;;;;9.67;6.73;;;;;;;;;;4975116;28;20202;-85
2024/01/28 06:54:47;;;;;;;7.20;6.47;;;;;;;;;;4976395;28;20241;-85
2024/01/28 06:57:16;;;;;;;10.27;7.73;;;;;;;;;;4974919;28;20245;-85
2024/01/28 06:59:44;;;;;;;6.93;5.37;;;;;;;;;;4958679;28;20203;-85
2024/01/28 07:02:15;;;;;;;8.70;6.50;;;;;;;;;;4958571;28;20199;-85
2024/01/28 07:04:43;;;;;;;8.57;7.63;;;;;;;;;;4974535;28;20203;-85
2024/01/28 07:07:12;;;;;;;11.20;6.70;;;;;;;;;;4958771;28;20293;-85
2024/01/28 07:09:41;;;;;;;8.63;7.37;;;;;;;;;;4957936;28;20228;-85
2024/01/28 07:12:09;;;;;;;12.23;8.03;;;;;;;;;;4974307;28;20198;-85
2024/01/28 07:14:38;;;;;;;8.63;6.93;;;;;;;;;;4956682;28;20213;-85
2024/01/28 07:17:07;;;;;;;9.97;7.87;;;;;;;;;;4958369;28;20191;-85
2024/01/28 07:19:37;;;;;;;8.87;7.47;;;;;;;;;;4974442;28;20199;-85
2024/01/28 07:22:06;;;;;;;9.30;7.27;;;;;;;;;;4957987;28;20235;-85
2024/01/28 07:24:34;;;;;;;9.10;6.63;;;;;;;;;;4974556;28;20214;-85
2024/01/28 07:27:03;;;;;;;9.13;6.17;;;;;;;;;;4974675;28;20238;-85
2024/01/28 07:29:31;;;;;;;11.83;7.67;;;;;;;;;;4975163;28;20205;-85
2024/01/28 07:31:59;;;;;;;11.63;5.50;;;;;;;;;;4973922;28;20224;-88
2024/01/28 07:34:28;;;;;;;13.57;8.33;;;;;;;;;;4958626;28;20211;-87
2024/01/28 07:36:59;;;;;;;5.57;4.57;;;;;;;;;;4975297;28;20254;-87
2024/01/28 07:39:27;;;;;;;4.57;4.17;;;;;;;;;;4975500;28;20204;-87
2024/01/28 07:41:58;;;;;;;2.83;2.67;;;;;;;;;;4958693;28;20217;-87
2024/01/28 07:44:27;;;;;;;3.43;3.13;;;;;;;;;;4974655;28;20207;-87
2024/01/28 07:46:55;;;;;;;2.87;2.50;;;;;;;;;;4959064;28;20204;-87
2024/01/28 07:49:24;;;;;;;1.00;1.00;;;;;;;;;;4958675;28;20255;-88
2024/01/28 07:51:53;;;;;;;2.70;2.50;;;;;;;;;;4974050;28;20304;-87
2024/01/28 07:54:23;;;;;;;7.00;4.23;;;;;;;;;;4958475;28;20209;-87
2024/01/28 07:56:51;;;;;;;6.40;5.80;;;;;;;;;;4958518;28;20213;-87
2024/01/28 07:59:20;;;;;;;7.97;5.37;;;;;;;;;;4958046;28;20203;-87
2024/01/28 08:01:49;;;;;;;7.20;6.17;;;;;;;;;;4973651;28;20211;-87
2024/01/28 08:04:17;;;;;;;9.43;7.43;;;;;;;;;;4975402;28;20257;-87
2024/01/28 08:06:46;;;;;;;7.63;6.73;;;;;;;;;;4976071;28;20214;-87
2024/01/28 08:09:15;;;;;;;9.83;6.60;;;;;;;;;;4958357;28;20208;-87
2024/01/28 08:11:45;;;;;;;7.63;6.33;;;;;;;;;;4957924;28;20203;-87
2024/01/28 08:14:14;;;;;;;10.00;6.27;;;;;;;;;;4974653;28;20282;-87
2024/01/28 08:16:42;;;;;;;7.87;6.67;;;;;;;;;;4975306;28;20223;-88
2024/01/28 08:19:11;;;;;;;10.03;7.07;;;;;;;;;;4975245;28;20235;-88
2024/01/28 08:21:40;;;;;;;9.03;7.10;;;;;;;;;;4974397;28;20206;-87
2024/01/28 08:24:08;;;;;;;7.63;6.67;;;;;;;;;;4958051;28;20221;-87
2024/01/28 08:26:37;;;;;;;10.33;6.10;;;;;;;;;;4957763;28;20291;-87
2024/01/28 08:29:07;;;;;;;9.67;6.40;;;;;;;;;;4975573;28;20238;-87
2024/01/28 08:31:35;;;;;;;9.07;5.97;;;;;;;;;;4958403;28;20204;-88
2024/01/28 08:34:04;;;;;;;10.10;6.50;;;;;;;;;;4957538;28;20211;-87
2024/01/28 08:36:32;;;;;;;8.30;6.50;;;;;;;;;;4973959;28;20289;-85
2024/01/28 08:39:04;;;;;;;10.60;6.83;;;;;;;;;;4974644;28;20201;-85
2024/01/28 08:41:33;;;;;;;10.80;6.67;;;;;;;;;;4974334;28;20207;-85
2024/01/28 08:44:06;;;;;;;7.00;6.13;;;;;;;;;;4972167;28;20207;-85
2024/01/28 08:46:39;;;;;;;7.70;6.40;;;;;;;;;;4956274;28;20210;-85
2024/01/28 08:49:08;;;;;;;9.03;7.37;;;;;;;;;;4956786;28;20211;-85
2024/01/28 08:51:37;;;;;;;6.53;5.97;;;;;;;;;;4956730;28;20210;-85
2024/01/28 08:54:05;;;;;;;7.77;6.90;;;;;;;;;;4972429;28;20206;-85
2024/01/28 08:56:34;;;;;;;7.43;6.63;;;;;;;;;;4972083;28;20230;-86
2024/01/28 08:59:05;;;;;;;9.10;6.30;;;;;;;;;;4956671;28;20201;-87
2024/01/28 09:01:33;;;;;;;10.17;6.20;;;;;;;;;;4956685;28;20205;-85
2024/01/28 09:04:05;;;;;;;9.07;6.00;;;;;;;;;;4973527;28;20201;-85
2024/01/28 09:06:35;;;;;;;10.33;6.40;;;;;;;;;;4956639;28;20243;-84
2024/01/28 09:09:07;;;;;;;8.83;6.77;;;;;;;;;;4974320;28;20207;-85
2024/01/28 09:11:39;;;;;;;7.77;6.20;;;;;;;;;;4956726;28;20205;-85
2024/01/28 09:14:08;;;;;;;9.37;6.40;;;;;;;;;;4956216;28;20199;-85
2024/01/28 09:16:36;;;;;;;7.27;5.23;;;;;;;;;;4972724;28;20216;-85
2024/01/28 09:19:06;;;;;;;6.87;5.07;;;;;;;;;;4956000;28;20296;-85
2024/01/28 09:21:35;;;;;;;5.70;4.73;;;;;;;;;;4956254;28;20251;-85
2024/01/28 09:24:04;;;;;;;5.83;4.90;;;;;;;;;;4955973;28;20196;-85
2024/01/28 09:26:32;;;;;;;6.40;5.47;;;;;;;;;;4972780;28;20218;-85
2024/01/28 09:29:01;;;;;;;9.00;6.23;;;;;;;;;;4955652;28;20197;-85
2024/01/28 09:31:30;;;;;;;8.17;5.37;;;;;;;;;;4971799;28;20205;-85
2024/01/28 09:33:58;;;;;;;6.67;5.97;;;;;;;;;;4956120;28;20438;-85
2024/01/28 09:36:28;;;;;;;9.90;5.47;;;;;;;;;;4955392;28;20229;-85
2024/01/28 09:38:57;;;;;;;9.40;7.63;;;;;;;;;;4972023;28;20255;-85
2024/01/28 09:41:32;;;;;;;8.50;6.80;;;;;;;;;;4973323;28;20286;-85
2024/01/28 09:44:00;;;;;;;7.50;5.77;;;;;;;;;;4973552;28;20209;-85
2024/01/28 09:46:33;;;;;;;7.67;6.20;;;;;;;;;;4971761;28;20284;-85
2024/01/28 09:49:02;;;;;;;9.93;6.30;;;;;;;;;;4972626;28;20216;-85
2024/01/28 09:51:32;;;;;;;7.87;6.73;;;;;;;;;;4955754;28;20198;-85
2024/01/28 09:54:01;;;;;;;6.93;6.20;;;;;;;;;;4972866;28;20280;-85
2024/01/28 09:56:32;;;;;;;6.83;5.83;;;;;;;;;;4973077;28;20220;-85
2024/01/28 09:59:01;;;;;;;6.67;4.20;;;;;;;;;;4972519;28;20201;-86
2024/01/28 10:01:31;;;;;;;8.23;5.87;;;;;;;;;;4971587;28;20213;-85
2024/01/28 10:04:00;;;;;;;8.27;5.47;;;;;;;;;;4971737;28;20211;-85
2024/01/28 10:06:29;;;;;;;6.77;5.40;;;;;;;;;;4955648;28;20431;-85
2024/01/28 10:08:59;;;;;;;6.67;4.80;;;;;;;;;;4972461;28;20204;-85
2024/01/28 10:11:27;;;;;;;8.00;6.07;;;;;;;;;;4972851;28;20207;-85
2024/01/28 10:13:56;;;;;;;10.20;5.80;;;;;;;;;;4956388;28;20205;-88
2024/01/28 10:16:25;;;;;;;5.60;4.90;;;;;;;;;;4956276;28;20200;-87
2024/01/28 10:18:53;;;;;;;8.13;5.90;;;;;;;;;;4955818;28;20477;-88
2024/01/28 10:21:26;;;;;;;7.17;6.23;;;;;;;;;;4972063;28;20207;-89
2024/01/28 10:23:54;;;;;;;8.80;6.17;;;;;;;;;;4974375;28;20201;-87
2024/01/28 10:26:25;;;;;;;6.20;5.60;;;;;;;;;;4956859;28;20197;-88
2024/01/28 10:28:53;;;;;;;9.93;5.27;;;;;;;;;;4956904;28;20236;-88
2024/01/28 10:31:24;;;;;;;6.90;5.27;;;;;;;;;;4972228;28;20209;-88
2024/01/28 10:33:52;;;;;;;8.50;6.40;;;;;;;;;;4972897;28;20212;-88
2024/01/28 10:36:21;;;;;;;8.00;5.93;;;;;;;;;;4953117;29;20241;-89
2024/01/28 10:38:50;;;;;;;6.20;5.30;;;;;;;;;;4953008;29;20233;-88
2024/01/28 10:41:21;;;;;;;6.77;5.13;;;;;;;;;;4954100;29;20198;-87
2024/01/28 10:43:53;;;;;;;8.63;4.40;;;;;;;;;;4968374;28;20245;-90
2024/01/28 10:46:25;;;;;;;7.47;4.93;;;;;;;;;;4953461;29;20645;-89
2024/01/28 10:48:55;;;;;;;7.43;5.20;;;;;;;;;;4954836;28;20393;-88
2024/01/28 10:51:24;;;;;;;6.77;5.50;;;;;;;;;;4957768;29;20208;-89
2024/01/28 10:53:52;;;;;;;7.63;5.00;;;;;;;;;;4972822;28;20201;-88
2024/01/28 10:56:21;;;;;;;5.70;4.97;;;;;;;;;;4959042;29;20289;-87
2024/01/28 10:58:51;;;;;;;6.23;5.17;;;;;;;;;;4973205;28;20229;-87
2024/01/28 11:01:20;;;;;;;9.07;4.93;;;;;;;;;;4956288;29;20205;-85
2024/01/28 11:03:49;;;;;;;5.33;4.30;;;;;;;;;;4972483;28;20202;-88
2024/01/28 11:06:18;;;;;;;9.73;5.00;;;;;;;;;;4972887;28;20292;-87
2024/01/28 11:08:47;;;;;;;5.83;5.27;;;;;;;;;;4959375;29;20208;-85
2024/01/28 11:11:15;;;;;;;5.20;3.97;;;;;;;;;;4958254;29;20194;-87
2024/01/28 11:13:46;;;;;;;6.97;4.67;;;;;;;;;;4971536;28;20308;-86
2024/01/28 11:16:15;;;;;;;6.13;4.90;;;;;;;;;;4958291;29;20213;-86
2024/01/28 11:18:54;;;;;;;3.27;2.97;;;;;;;;;;4958590;29;20301;-86
2024/01/28 11:21:23;;;;;;;10.57;4.63;;;;;;;;;;4956900;29;20341;-86
2024/01/28 11:23:54;;;;;;;6.03;5.27;;;;;;;;;;4972273;28;20205;-88
2024/01/28 11:26:23;;;;;;;6.23;4.33;;;;;;;;;;4956782;29;20202;-88
2024/01/28 11:28:52;;;;;;;6.70;4.40;;;;;;;;;;4957648;29;20182;-86
2024/01/28 11:31:32;;;;;;;3.70;3.37;;;;;;;;;;4972259;28;20304;-87
2024/01/28 11:34:14;;;;;;;5.60;5.07;;;;;;;;;;4971968;28;20198;-87
2024/01/28 11:36:44;;;;;;;5.33;4.87;;;;;;;;;;4972161;28;20245;-89
2024/01/28 11:39:15;;;;;;;3.10;2.80;;;;;;;;;;4957227;29;20241;-88
2024/01/28 11:41:44;;;;;;;4.50;3.60;;;;;;;;;;4972466;28;20194;-88
2024/01/28 11:44:13;;;;;;;5.03;3.87;;;;;;;;;;4957210;29;20205;-88
2024/01/28 11:46:43;;;;;;;4.20;3.60;;;;;;;;;;4972199;28;20194;-88
2024/01/28 11:49:13;;;;;;;5.30;4.73;;;;;;;;;;4972284;28;20204;-88
2024/01/28 11:51:42;;;;;;;6.33;5.10;;;;;;;;;;4957421;29;20261;-88
2024/01/28 11:54:10;;;;;;;5.87;4.33;;;;;;;;;;4955288;29;20296;-88
2024/01/28 11:56:39;;;;;;;7.40;3.03;;;;;;;;;;4955263;29;20214;-88
2024/01/28 11:59:12;;;;;;;3.47;2.70;;;;;;;;;;4956284;29;20273;-88
2024/01/28 12:01:41;;;;;;;5.57;4.20;;;;;;;;;;4956508;28;20194;-88
2024/01/28 12:04:11;;;;;;;4.73;4.33;;;;;;;;;;4956460;29;20198;-88
2024/01/28 12:06:40;;;;;;;7.10;4.07;;;;;;;;;;4956827;29;20220;-88
2024/01/28 12:09:12;;;;;;;4.60;4.00;;;;;;;;;;4972240;28;20201;-88
2024/01/28 12:11:40;;;;;;;7.00;6.30;;;;;;;;;;4956453;29;20208;-88
2024/01/28 12:14:09;;;;;;;5.37;4.53;;;;;;;;;;4955611;29;20190;-88
2024/01/28 12:16:37;;;;;;;1.60;1.50;;;;;;;;;;4955955;29;20233;-88
2024/01/28 12:19:06;;;;;;;6.00;4.10;;;;;;;;;;4971230;28;20226;-87
2024/01/28 12:21:39;;;;;;;3.60;2.07;;;;;;;;;;4956061;29;20205;-88
2024/01/28 12:24:10;;;;;;;4.33;3.87;;;;;;;;;;4956151;29;20202;-88
2024/01/28 12:26:43;;;;;;;5.03;4.53;;;;;;;;;;4955860;29;20204;-89
2024/01/28 12:29:13;;;;;;;5.50;3.83;;;;;;;;;;4955252;29;20196;-88
2024/01/28 12:31:42;;;;;;;3.97;3.20;;;;;;;;;;4971555;28;20227;-88
2024/01/28 12:34:15;;;;;;;2.53;2.20;;;;;;;;;;4956040;29;20340;-88
2024/01/28 12:36:45;;;;;;;6.53;3.77;;;;;;;;;;4968164;28;20246;-88
2024/01/28 12:39:14;;;;;;;3.93;2.73;;;;;;;;;;4954995;29;20222;-88
2024/01/28 12:41:42;;;;;;;5.80;3.07;;;;;;;;;;4955897;29;20377;-88
2024/01/28 12:44:12;;;;;;;2.63;2.43;;;;;;;;;;4955531;29;20200;-88
2024/01/28 12:46:40;;;;;;;5.87;4.70;;;;;;;;;;4955759;29;20208;-88
2024/01/28 12:49:09;;;;;;;5.07;3.70;;;;;;;;;;4955253;29;20213;-88
2024/01/28 12:51:40;;;;;;;4.57;4.17;;;;;;;;;;4954901;29;20321;-88
2024/01/28 12:54:10;;;;;;;5.20;3.80;;;;;;;;;;4954751;29;20206;-88
2024/01/28 12:56:39;;;;;;;3.23;2.93;;;;;;;;;;4954989;29;20214;-88
2024/01/28 12:59:07;;;;;;;5.03;4.33;;;;;;;;;;4955233;29;20226;-88
2024/01/28 13:01:37;;;;;;;5.90;4.47;;;;;;;;;;4955008;29;20297;-89
2024/01/28 13:04:10;;;;;;;5.63;3.80;;;;;;;;;;4955639;29;20192;-88
2024/01/28 13:06:38;;;;;;;5.27;4.00;;;;;;;;;;4955852;29;20204;-88
2024/01/28 13:09:09;;;;;;;6.83;4.03;;;;;;;;;;4970039;28;20195;-88
2024/01/28 13:11:39;;;;;;;5.07;3.63;;;;;;;;;;4954673;28;20200;-88
2024/01/28 13:14:09;;;;;;;2.80;2.27;;;;;;;;;;4970637;28;20322;-88
2024/01/28 13:16:38;;;;;;;4.67;3.77;;;;;;;;;;4955980;29;20209;-88
2024/01/28 13:19:06;;;;;;;4.07;3.53;;;;;;;;;;4954042;29;20242;-88
2024/01/28 13:21:35;;;;;;;4.20;3.80;;;;;;;;;;4954208;29;20205;-88
2024/01/28 13:24:07;;;;;;;6.13;3.80;;;;;;;;;;4955356;29;20227;-88
2024/01/28 13:26:35;;;;;;;5.53;4.37;;;;;;;;;;4954551;29;20264;-88
2024/01/28 13:29:05;;;;;;;5.10;4.70;;;;;;;;;;4969904;28;20200;-88
2024/01/28 13:31:34;;;;;;;5.47;4.57;;;;;;;;;;4954199;29;20207;-88
2024/01/28 13:34:03;;;;;;;5.23;4.60;;;;;;;;;;4969852;28;20275;-88
2024/01/28 13:36:32;;;;;;;6.00;4.80;;;;;;;;;;4970371;28;20475;-88
2024/01/28 13:39:00;;;;;;;9.73;5.40;;;;;;;;;;4955081;29;20218;-88
2024/01/28 13:41:29;;;;;;;4.60;4.20;;;;;;;;;;4954557;29;20290;-88
2024/01/28 13:43:57;;;;;;;7.60;5.20;;;;;;;;;;4969420;28;20207;-88
2024/01/28 13:46:27;;;;;;;6.03;4.97;;;;;;;;;;4970735;28;20204;-88
2024/01/28 13:48:56;;;;;;;6.77;4.93;;;;;;;;;;4954370;29;20227;-88
2024/01/28 13:51:26;;;;;;;8.43;5.33;;;;;;;;;;4954679;29;20206;-88
2024/01/28 13:53:55;;;;;;;5.27;4.77;;;;;;;;;;4953574;29;20508;-88
2024/01/28 13:56:23;;;;;;;6.70;4.17;;;;;;;;;;4955389;29;20199;-88
2024/01/28 13:58:53;;;;;;;5.70;4.57;;;;;;;;;;4953937;29;20281;-88
2024/01/28 14:01:21;;;;;;;5.40;4.87;;;;;;;;;;4953537;29;20220;-87
2024/01/28 14:03:51;;;;;;;7.90;4.67;;;;;;;;;;4953762;29;20247;-88
2024/01/28 14:06:22;;;;;;;6.23;4.53;;;;;;;;;;4954260;29;20234;-88
2024/01/28 14:08:52;;;;;;;5.53;4.40;;;;;;;;;;4955800;29;20291;-88
2024/01/28 14:11:21;;;;;;;5.60;3.87;;;;;;;;;;4954918;29;20294;-87
2024/01/28 14:13:49;;;;;;;4.77;4.10;;;;;;;;;;4953241;29;20244;-88
2024/01/28 14:16:18;;;;;;;5.23;4.63;;;;;;;;;;4953972;29;20216;-88
2024/01/28 14:18:47;;;;;;;6.83;4.73;;;;;;;;;;4955196;29;20220;-88
2024/01/28 14:21:17;;;;;;;8.97;5.87;;;;;;;;;;4953903;29;20287;-88
2024/01/28 14:23:45;;;;;;;7.67;5.23;;;;;;;;;;4953040;28;20241;-88
2024/01/28 14:26:14;;;;;;;5.47;4.93;;;;;;;;;;4957638;29;20213;-87
2024/01/28 14:28:42;;;;;;;8.00;5.00;;;;;;;;;;4973664;28;20199;-88
2024/01/28 14:31:11;;;;;;;6.10;4.83;;;;;;;;;;4958208;29;20223;-88
2024/01/28 14:33:39;;;;;;;4.87;4.33;;;;;;;;;;4955934;28;20216;-88
2024/01/28 14:36:08;;;;;;;4.30;4.00;;;;;;;;;;4957403;29;20249;-88
2024/01/28 14:38:37;;;;;;;3.77;3.47;;;;;;;;;;4958667;29;20205;-88
2024/01/28 14:41:06;;;;;;;5.80;5.00;;;;;;;;;;4958335;29;20282;-88
2024/01/28 14:43:34;;;;;;;5.63;4.53;;;;;;;;;;4956557;29;20208;-88
2024/01/28 14:46:03;;;;;;;4.33;3.93;;;;;;;;;;4957023;29;20208;-88
2024/01/28 14:48:34;;;;;;;7.20;4.73;;;;;;;;;;4958624;29;20239;-88